sensor_id;sensor_type;location;lat;lon;timestamp;P1;durP1;ratioP1;P2;durP2;ratioP2
5042;SDS011;2540;50.928;6.856;2023-03-01T00:01:21;10.83;;;6.77;;
5042;SDS011;2540;50.928;6.856;2023-03-01T00:03:46;8.83;;;6.00;;
5042;SDS011;2540;50.928;6.856;2023-03-01T00:06:11;8.00;;;5.30;;
5042;SDS011;2540;50.928;6.856;2023-03-01T00:08:37;10.60;;;6.00;;
5042;SDS011;2540;50.928;6.856;2023-03-01T00:11:15;10.03;;;5.33;;
5042;SDS011;2540;50.928;6.856;2023-03-01T00:13:41;12.43;;;6.10;;
5042;SDS011;2540;50.928;6.856;2023-03-01T00:16:08;10.47;;;6.03;;
5042;SDS011;2540;50.928;6.856;2023-03-01T00:18:33;11.43;;;5.93;;
5042;SDS011;2540;50.928;6.856;2023-03-01T00:20:59;10.43;;;6.33;;
5042;SDS011;2540;50.928;6.856;2023-03-01T00:23:24;9.53;;;6.57;;
5042;SDS011;2540;50.928;6.856;2023-03-01T00:25:49;12.67;;;6.90;;
5042;SDS011;2540;50.928;6.856;2023-03-01T00:28:15;12.30;;;6.20;;
5042;SDS011;2540;50.928;6.856;2023-03-01T00:30:40;10.70;;;5.90;;
5042;SDS011;2540;50.928;6.856;2023-03-01T00:33:05;11.27;;;5.90;;
5042;SDS011;2540;50.928;6.856;2023-03-01T00:35:32;13.90;;;5.97;;
5042;SDS011;2540;50.928;6.856;2023-03-01T00:37:57;9.33;;;5.57;;
5042;SDS011;2540;50.928;6.856;2023-03-01T00:40:29;9.83;;;5.60;;
5042;SDS011;2540;50.928;6.856;2023-03-01T00:42:54;9.93;;;5.87;;
5042;SDS011;2540;50.928;6.856;2023-03-01T00:45:20;11.80;;;6.20;;
5042;SDS011;2540;50.928;6.856;2023-03-01T00:47:45;9.60;;;5.70;;
5042;SDS011;2540;50.928;6.856;2023-03-01T00:50:10;9.10;;;5.93;;
5042;SDS011;2540;50.928;6.856;2023-03-01T00:52:36;10.80;;;5.53;;
5042;SDS011;2540;50.928;6.856;2023-03-01T00:55:01;9.73;;;5.93;;
5042;SDS011;2540;50.928;6.856;2023-03-01T00:57:27;6.90;;;5.20;;
5042;SDS011;2540;50.928;6.856;2023-03-01T00:59:52;9.40;;;5.67;;
5042;SDS011;2540;50.928;6.856;2023-03-01T01:02:18;11.87;;;5.63;;
5042;SDS011;2540;50.928;6.856;2023-03-01T01:04:44;9.40;;;5.73;;
5042;SDS011;2540;50.928;6.856;2023-03-01T01:07:09;14.83;;;7.37;;
5042;SDS011;2540;50.928;6.856;2023-03-01T01:09:34;10.03;;;6.13;;
5042;SDS011;2540;50.928;6.856;2023-03-01T01:12:00;10.70;;;6.27;;
5042;SDS011;2540;50.928;6.856;2023-03-01T01:14:25;8.57;;;5.80;;
5042;SDS011;2540;50.928;6.856;2023-03-01T01:16:50;8.30;;;5.60;;
5042;SDS011;2540;50.928;6.856;2023-03-01T01:19:16;12.73;;;6.40;;
5042;SDS011;2540;50.928;6.856;2023-03-01T01:21:41;8.73;;;6.10;;
5042;SDS011;2540;50.928;6.856;2023-03-01T01:24:08;10.50;;;6.03;;
5042;SDS011;2540;50.928;6.856;2023-03-01T01:26:33;7.00;;;5.03;;
5042;SDS011;2540;50.928;6.856;2023-03-01T01:28:59;10.93;;;5.87;;
5042;SDS011;2540;50.928;6.856;2023-03-01T01:31:25;14.67;;;6.10;;
5042;SDS011;2540;50.928;6.856;2023-03-01T01:33:50;9.73;;;6.33;;
5042;SDS011;2540;50.928;6.856;2023-03-01T01:36:16;8.83;;;5.57;;
5042;SDS011;2540;50.928;6.856;2023-03-01T01:38:41;9.20;;;6.00;;
5042;SDS011;2540;50.928;6.856;2023-03-01T01:41:07;12.13;;;7.07;;
5042;SDS011;2540;50.928;6.856;2023-03-01T01:43:36;11.83;;;7.60;;
5042;SDS011;2540;50.928;6.856;2023-03-01T01:46:06;8.97;;;6.70;;
5042;SDS011;2540;50.928;6.856;2023-03-01T01:48:45;15.03;;;6.80;;
5042;SDS011;2540;50.928;6.856;2023-03-01T01:51:23;12.07;;;6.77;;
5042;SDS011;2540;50.928;6.856;2023-03-01T01:53:51;10.50;;;6.90;;
5042;SDS011;2540;50.928;6.856;2023-03-01T01:56:18;11.20;;;6.67;;
5042;SDS011;2540;50.928;6.856;2023-03-01T01:58:43;12.20;;;6.57;;
5042;SDS011;2540;50.928;6.856;2023-03-01T02:01:09;15.30;;;7.10;;
5042;SDS011;2540;50.928;6.856;2023-03-01T02:03:36;11.67;;;7.00;;
5042;SDS011;2540;50.928;6.856;2023-03-01T02:06:11;10.47;;;6.33;;
5042;SDS011;2540;50.928;6.856;2023-03-01T02:08:38;10.90;;;7.20;;
5042;SDS011;2540;50.928;6.856;2023-03-01T02:11:06;10.73;;;6.60;;
5042;SDS011;2540;50.928;6.856;2023-03-01T02:13:32;11.30;;;6.80;;
5042;SDS011;2540;50.928;6.856;2023-03-01T02:15:58;11.00;;;6.77;;
5042;SDS011;2540;50.928;6.856;2023-03-01T02:18:23;10.63;;;6.50;;
5042;SDS011;2540;50.928;6.856;2023-03-01T02:23:14;10.80;;;6.67;;
5042;SDS011;2540;50.928;6.856;2023-03-01T02:25:56;12.40;;;5.90;;
5042;SDS011;2540;50.928;6.856;2023-03-01T02:28:28;9.33;;;6.30;;
5042;SDS011;2540;50.928;6.856;2023-03-01T02:30:54;13.53;;;6.47;;
5042;SDS011;2540;50.928;6.856;2023-03-01T02:33:39;11.43;;;7.37;;
5042;SDS011;2540;50.928;6.856;2023-03-01T02:36:08;15.50;;;7.67;;
5042;SDS011;2540;50.928;6.856;2023-03-01T02:38:34;12.53;;;7.33;;
5042;SDS011;2540;50.928;6.856;2023-03-01T02:40:59;19.10;;;6.80;;
5042;SDS011;2540;50.928;6.856;2023-03-01T02:43:25;10.80;;;6.70;;
5042;SDS011;2540;50.928;6.856;2023-03-01T02:45:52;14.80;;;7.23;;
5042;SDS011;2540;50.928;6.856;2023-03-01T02:48:19;9.60;;;7.27;;
5042;SDS011;2540;50.928;6.856;2023-03-01T02:53:15;13.50;;;7.80;;
5042;SDS011;2540;50.928;6.856;2023-03-01T02:55:41;14.03;;;7.20;;
5042;SDS011;2540;50.928;6.856;2023-03-01T02:58:06;21.60;;;7.83;;
5042;SDS011;2540;50.928;6.856;2023-03-01T03:00:39;11.57;;;7.30;;
5042;SDS011;2540;50.928;6.856;2023-03-01T03:03:09;15.60;;;7.33;;
5042;SDS011;2540;50.928;6.856;2023-03-01T03:05:35;11.13;;;6.83;;
5042;SDS011;2540;50.928;6.856;2023-03-01T03:08:02;13.47;;;8.27;;
5042;SDS011;2540;50.928;6.856;2023-03-01T03:10:30;13.87;;;7.30;;
5042;SDS011;2540;50.928;6.856;2023-03-01T03:13:07;15.40;;;7.80;;
5042;SDS011;2540;50.928;6.856;2023-03-01T03:15:32;12.03;;;7.43;;
5042;SDS011;2540;50.928;6.856;2023-03-01T03:18:00;12.93;;;7.20;;
5042;SDS011;2540;50.928;6.856;2023-03-01T03:20:27;14.17;;;7.70;;
5042;SDS011;2540;50.928;6.856;2023-03-01T03:22:53;12.93;;;7.73;;
5042;SDS011;2540;50.928;6.856;2023-03-01T03:25:19;14.17;;;9.03;;
5042;SDS011;2540;50.928;6.856;2023-03-01T03:27:45;12.80;;;7.60;;
5042;SDS011;2540;50.928;6.856;2023-03-01T03:30:13;13.83;;;8.03;;
5042;SDS011;2540;50.928;6.856;2023-03-01T03:32:39;13.30;;;8.10;;
5042;SDS011;2540;50.928;6.856;2023-03-01T03:35:05;11.30;;;7.43;;
5042;SDS011;2540;50.928;6.856;2023-03-01T03:37:35;10.87;;;6.90;;
5042;SDS011;2540;50.928;6.856;2023-03-01T03:40:19;14.93;;;8.13;;
5042;SDS011;2540;50.928;6.856;2023-03-01T03:42:44;12.87;;;7.70;;
5042;SDS011;2540;50.928;6.856;2023-03-01T03:45:09;14.60;;;7.70;;
5042;SDS011;2540;50.928;6.856;2023-03-01T03:47:34;12.50;;;7.50;;
5042;SDS011;2540;50.928;6.856;2023-03-01T03:50:00;12.27;;;8.20;;
5042;SDS011;2540;50.928;6.856;2023-03-01T03:52:25;12.90;;;7.80;;
5042;SDS011;2540;50.928;6.856;2023-03-01T03:54:50;13.40;;;8.57;;
5042;SDS011;2540;50.928;6.856;2023-03-01T03:57:15;11.70;;;7.10;;
5042;SDS011;2540;50.928;6.856;2023-03-01T03:59:40;15.23;;;7.30;;
5042;SDS011;2540;50.928;6.856;2023-03-01T04:02:06;12.93;;;7.93;;
5042;SDS011;2540;50.928;6.856;2023-03-01T04:04:33;15.47;;;8.50;;
5042;SDS011;2540;50.928;6.856;2023-03-01T04:06:59;14.97;;;8.43;;
5042;SDS011;2540;50.928;6.856;2023-03-01T04:09:24;15.20;;;8.30;;
5042;SDS011;2540;50.928;6.856;2023-03-01T04:11:49;16.50;;;8.23;;
5042;SDS011;2540;50.928;6.856;2023-03-01T04:14:14;13.47;;;8.03;;
5042;SDS011;2540;50.928;6.856;2023-03-01T04:16:39;12.30;;;8.00;;
5042;SDS011;2540;50.928;6.856;2023-03-01T04:19:05;13.10;;;8.40;;
5042;SDS011;2540;50.928;6.856;2023-03-01T04:21:31;15.13;;;8.90;;
5042;SDS011;2540;50.928;6.856;2023-03-01T04:23:56;15.63;;;8.10;;
5042;SDS011;2540;50.928;6.856;2023-03-01T04:26:21;11.33;;;7.50;;
5042;SDS011;2540;50.928;6.856;2023-03-01T04:28:47;11.37;;;7.93;;
5042;SDS011;2540;50.928;6.856;2023-03-01T04:31:15;19.63;;;8.17;;
5042;SDS011;2540;50.928;6.856;2023-03-01T04:33:46;11.27;;;8.03;;
5042;SDS011;2540;50.928;6.856;2023-03-01T04:36:12;13.57;;;7.97;;
5042;SDS011;2540;50.928;6.856;2023-03-01T04:38:37;11.50;;;7.70;;
5042;SDS011;2540;50.928;6.856;2023-03-01T04:41:06;12.17;;;8.27;;
5042;SDS011;2540;50.928;6.856;2023-03-01T04:43:32;13.57;;;7.90;;
5042;SDS011;2540;50.928;6.856;2023-03-01T04:46:11;12.60;;;7.70;;
5042;SDS011;2540;50.928;6.856;2023-03-01T04:48:37;18.73;;;7.77;;
5042;SDS011;2540;50.928;6.856;2023-03-01T04:51:02;14.13;;;8.37;;
5042;SDS011;2540;50.928;6.856;2023-03-01T04:53:28;12.87;;;8.10;;
5042;SDS011;2540;50.928;6.856;2023-03-01T04:55:53;13.97;;;8.73;;
5042;SDS011;2540;50.928;6.856;2023-03-01T04:58:19;12.87;;;8.13;;
5042;SDS011;2540;50.928;6.856;2023-03-01T05:00:44;13.73;;;8.00;;
5042;SDS011;2540;50.928;6.856;2023-03-01T05:03:09;12.70;;;7.90;;
5042;SDS011;2540;50.928;6.856;2023-03-01T05:05:38;18.50;;;8.80;;
5042;SDS011;2540;50.928;6.856;2023-03-01T05:08:04;16.33;;;7.70;;
5042;SDS011;2540;50.928;6.856;2023-03-01T05:10:30;15.77;;;8.73;;
5042;SDS011;2540;50.928;6.856;2023-03-01T05:12:56;19.63;;;8.77;;
5042;SDS011;2540;50.928;6.856;2023-03-01T05:15:25;16.20;;;8.17;;
5042;SDS011;2540;50.928;6.856;2023-03-01T05:17:53;12.63;;;7.53;;
5042;SDS011;2540;50.928;6.856;2023-03-01T05:20:19;20.10;;;7.93;;
5042;SDS011;2540;50.928;6.856;2023-03-01T05:22:48;15.17;;;8.23;;
5042;SDS011;2540;50.928;6.856;2023-03-01T05:25:13;11.60;;;7.50;;
5042;SDS011;2540;50.928;6.856;2023-03-01T05:27:39;14.80;;;8.10;;
5042;SDS011;2540;50.928;6.856;2023-03-01T05:30:04;13.70;;;7.93;;
5042;SDS011;2540;50.928;6.856;2023-03-01T05:32:38;14.20;;;8.30;;
5042;SDS011;2540;50.928;6.856;2023-03-01T05:35:04;14.50;;;8.57;;
5042;SDS011;2540;50.928;6.856;2023-03-01T05:37:29;15.37;;;8.07;;
5042;SDS011;2540;50.928;6.856;2023-03-01T05:39:54;13.40;;;8.40;;
5042;SDS011;2540;50.928;6.856;2023-03-01T05:42:19;16.60;;;8.87;;
5042;SDS011;2540;50.928;6.856;2023-03-01T05:44:44;17.03;;;8.80;;
5042;SDS011;2540;50.928;6.856;2023-03-01T05:47:10;16.17;;;7.63;;
5042;SDS011;2540;50.928;6.856;2023-03-01T05:49:35;17.37;;;9.10;;
5042;SDS011;2540;50.928;6.856;2023-03-01T05:52:00;16.40;;;8.87;;
5042;SDS011;2540;50.928;6.856;2023-03-01T05:54:25;15.37;;;9.17;;
5042;SDS011;2540;50.928;6.856;2023-03-01T05:56:51;12.10;;;7.50;;
5042;SDS011;2540;50.928;6.856;2023-03-01T05:59:16;15.73;;;8.10;;
5042;SDS011;2540;50.928;6.856;2023-03-01T06:01:41;13.17;;;7.67;;
5042;SDS011;2540;50.928;6.856;2023-03-01T06:04:06;13.97;;;8.40;;
5042;SDS011;2540;50.928;6.856;2023-03-01T06:06:35;17.33;;;8.50;;
5042;SDS011;2540;50.928;6.856;2023-03-01T06:09:02;19.37;;;9.47;;
5042;SDS011;2540;50.928;6.856;2023-03-01T06:11:27;14.40;;;8.40;;
5042;SDS011;2540;50.928;6.856;2023-03-01T06:13:53;16.30;;;8.83;;
5042;SDS011;2540;50.928;6.856;2023-03-01T06:16:18;15.70;;;8.47;;
5042;SDS011;2540;50.928;6.856;2023-03-01T06:18:43;18.50;;;8.73;;
5042;SDS011;2540;50.928;6.856;2023-03-01T06:21:08;13.03;;;8.10;;
5042;SDS011;2540;50.928;6.856;2023-03-01T06:23:34;14.57;;;8.90;;
5042;SDS011;2540;50.928;6.856;2023-03-01T06:26:00;14.27;;;8.60;;
5042;SDS011;2540;50.928;6.856;2023-03-01T06:28:25;13.57;;;7.77;;
5042;SDS011;2540;50.928;6.856;2023-03-01T06:30:51;15.40;;;8.50;;
5042;SDS011;2540;50.928;6.856;2023-03-01T06:33:16;15.90;;;9.30;;
5042;SDS011;2540;50.928;6.856;2023-03-01T06:35:44;15.10;;;8.60;;
5042;SDS011;2540;50.928;6.856;2023-03-01T06:38:09;18.00;;;10.20;;
5042;SDS011;2540;50.928;6.856;2023-03-01T06:40:34;18.73;;;8.70;;
5042;SDS011;2540;50.928;6.856;2023-03-01T06:43:00;22.53;;;9.90;;
5042;SDS011;2540;50.928;6.856;2023-03-01T06:45:25;18.40;;;8.73;;
5042;SDS011;2540;50.928;6.856;2023-03-01T06:47:51;19.40;;;9.67;;
5042;SDS011;2540;50.928;6.856;2023-03-01T06:50:16;17.23;;;9.47;;
5042;SDS011;2540;50.928;6.856;2023-03-01T06:52:42;15.83;;;8.70;;
5042;SDS011;2540;50.928;6.856;2023-03-01T06:55:09;13.80;;;8.27;;
5042;SDS011;2540;50.928;6.856;2023-03-01T06:57:34;17.10;;;9.23;;
5042;SDS011;2540;50.928;6.856;2023-03-01T06:59:59;14.27;;;8.70;;
5042;SDS011;2540;50.928;6.856;2023-03-01T07:02:25;15.10;;;9.73;;
5042;SDS011;2540;50.928;6.856;2023-03-01T07:04:50;19.27;;;9.97;;
5042;SDS011;2540;50.928;6.856;2023-03-01T07:07:23;23.83;;;10.47;;
5042;SDS011;2540;50.928;6.856;2023-03-01T07:09:49;17.00;;;9.30;;
5042;SDS011;2540;50.928;6.856;2023-03-01T07:12:14;20.80;;;9.93;;
5042;SDS011;2540;50.928;6.856;2023-03-01T07:14:39;18.10;;;10.00;;
5042;SDS011;2540;50.928;6.856;2023-03-01T07:17:05;16.87;;;9.50;;
5042;SDS011;2540;50.928;6.856;2023-03-01T07:19:30;17.60;;;10.67;;
5042;SDS011;2540;50.928;6.856;2023-03-01T07:21:55;18.03;;;10.40;;
5042;SDS011;2540;50.928;6.856;2023-03-01T07:24:20;17.47;;;10.00;;
5042;SDS011;2540;50.928;6.856;2023-03-01T07:26:49;16.57;;;11.03;;
5042;SDS011;2540;50.928;6.856;2023-03-01T07:29:15;19.13;;;10.10;;
5042;SDS011;2540;50.928;6.856;2023-03-01T07:31:40;18.20;;;11.50;;
5042;SDS011;2540;50.928;6.856;2023-03-01T07:34:05;14.70;;;10.10;;
5042;SDS011;2540;50.928;6.856;2023-03-01T07:36:30;16.00;;;10.60;;
5042;SDS011;2540;50.928;6.856;2023-03-01T07:38:56;19.03;;;11.17;;
5042;SDS011;2540;50.928;6.856;2023-03-01T07:41:21;20.33;;;11.13;;
5042;SDS011;2540;50.928;6.856;2023-03-01T07:43:47;18.47;;;10.47;;
5042;SDS011;2540;50.928;6.856;2023-03-01T07:46:12;19.17;;;11.50;;
5042;SDS011;2540;50.928;6.856;2023-03-01T07:48:37;18.20;;;11.20;;
5042;SDS011;2540;50.928;6.856;2023-03-01T07:51:03;16.47;;;10.50;;
5042;SDS011;2540;50.928;6.856;2023-03-01T07:53:29;20.13;;;11.63;;
5042;SDS011;2540;50.928;6.856;2023-03-01T07:56:02;17.23;;;10.90;;
5042;SDS011;2540;50.928;6.856;2023-03-01T07:58:28;16.83;;;10.77;;
5042;SDS011;2540;50.928;6.856;2023-03-01T08:00:53;19.43;;;12.37;;
5042;SDS011;2540;50.928;6.856;2023-03-01T08:03:18;19.93;;;10.70;;
5042;SDS011;2540;50.928;6.856;2023-03-01T08:05:43;20.87;;;10.40;;
5042;SDS011;2540;50.928;6.856;2023-03-01T08:08:08;18.30;;;11.07;;
5042;SDS011;2540;50.928;6.856;2023-03-01T08:10:33;19.50;;;10.30;;
5042;SDS011;2540;50.928;6.856;2023-03-01T08:12:59;21.57;;;11.93;;
5042;SDS011;2540;50.928;6.856;2023-03-01T08:15:24;20.13;;;11.40;;
5042;SDS011;2540;50.928;6.856;2023-03-01T08:17:49;24.60;;;11.70;;
5042;SDS011;2540;50.928;6.856;2023-03-01T08:20:15;16.97;;;10.70;;
5042;SDS011;2540;50.928;6.856;2023-03-01T08:22:41;24.73;;;11.23;;
5042;SDS011;2540;50.928;6.856;2023-03-01T08:25:06;20.17;;;10.93;;
5042;SDS011;2540;50.928;6.856;2023-03-01T08:27:32;30.00;;;11.70;;
5042;SDS011;2540;50.928;6.856;2023-03-01T08:29:57;18.43;;;10.63;;
5042;SDS011;2540;50.928;6.856;2023-03-01T08:32:22;20.90;;;11.83;;
5042;SDS011;2540;50.928;6.856;2023-03-01T08:34:47;18.90;;;11.20;;
5042;SDS011;2540;50.928;6.856;2023-03-01T08:37:20;20.10;;;10.37;;
5042;SDS011;2540;50.928;6.856;2023-03-01T08:39:48;23.13;;;12.60;;
5042;SDS011;2540;50.928;6.856;2023-03-01T08:42:13;18.17;;;10.90;;
5042;SDS011;2540;50.928;6.856;2023-03-01T08:44:39;25.40;;;12.70;;
5042;SDS011;2540;50.928;6.856;2023-03-01T08:47:04;21.27;;;12.10;;
5042;SDS011;2540;50.928;6.856;2023-03-01T08:49:32;20.23;;;11.60;;
5042;SDS011;2540;50.928;6.856;2023-03-01T08:51:57;22.13;;;11.50;;
5042;SDS011;2540;50.928;6.856;2023-03-01T08:54:23;20.67;;;12.03;;
5042;SDS011;2540;50.928;6.856;2023-03-01T08:56:48;25.93;;;13.33;;
5042;SDS011;2540;50.928;6.856;2023-03-01T08:59:14;20.67;;;11.00;;
5042;SDS011;2540;50.928;6.856;2023-03-01T09:01:39;20.00;;;10.60;;
5042;SDS011;2540;50.928;6.856;2023-03-01T09:04:05;19.10;;;11.37;;
5042;SDS011;2540;50.928;6.856;2023-03-01T09:06:31;24.13;;;11.97;;
5042;SDS011;2540;50.928;6.856;2023-03-01T09:08:58;19.10;;;11.33;;
5042;SDS011;2540;50.928;6.856;2023-03-01T09:11:23;21.30;;;10.90;;
5042;SDS011;2540;50.928;6.856;2023-03-01T09:13:49;20.53;;;11.07;;
5042;SDS011;2540;50.928;6.856;2023-03-01T09:16:15;16.63;;;9.70;;
5042;SDS011;2540;50.928;6.856;2023-03-01T09:18:42;19.30;;;10.73;;
5042;SDS011;2540;50.928;6.856;2023-03-01T09:21:09;23.03;;;10.87;;
5042;SDS011;2540;50.928;6.856;2023-03-01T09:23:35;19.90;;;9.83;;
5042;SDS011;2540;50.928;6.856;2023-03-01T09:26:04;14.60;;;9.93;;
5042;SDS011;2540;50.928;6.856;2023-03-01T09:28:29;16.30;;;9.93;;
5042;SDS011;2540;50.928;6.856;2023-03-01T09:30:57;16.13;;;9.43;;
5042;SDS011;2540;50.928;6.856;2023-03-01T09:33:23;16.93;;;8.97;;
5042;SDS011;2540;50.928;6.856;2023-03-01T09:35:48;18.97;;;10.07;;
5042;SDS011;2540;50.928;6.856;2023-03-01T09:38:13;16.00;;;8.40;;
5042;SDS011;2540;50.928;6.856;2023-03-01T09:40:42;14.50;;;9.00;;
5042;SDS011;2540;50.928;6.856;2023-03-01T09:43:15;19.37;;;9.00;;
5042;SDS011;2540;50.928;6.856;2023-03-01T09:45:43;17.70;;;9.60;;
5042;SDS011;2540;50.928;6.856;2023-03-01T09:48:12;14.53;;;8.00;;
5042;SDS011;2540;50.928;6.856;2023-03-01T09:50:39;16.13;;;8.00;;
5042;SDS011;2540;50.928;6.856;2023-03-01T09:55:37;15.80;;;8.60;;
5042;SDS011;2540;50.928;6.856;2023-03-01T10:00:44;16.43;;;7.43;;
5042;SDS011;2540;50.928;6.856;2023-03-01T10:05:45;16.90;;;7.50;;
5042;SDS011;2540;50.928;6.856;2023-03-01T10:10:38;12.57;;;7.03;;
5042;SDS011;2540;50.928;6.856;2023-03-01T10:13:10;14.30;;;8.53;;
5042;SDS011;2540;50.928;6.856;2023-03-01T10:15:41;17.50;;;7.90;;
5042;SDS011;2540;50.928;6.856;2023-03-01T10:18:26;19.33;;;8.60;;
5042;SDS011;2540;50.928;6.856;2023-03-01T10:20:57;14.60;;;7.20;;
5042;SDS011;2540;50.928;6.856;2023-03-01T10:23:23;16.73;;;8.00;;
5042;SDS011;2540;50.928;6.856;2023-03-01T10:30:45;15.30;;;7.53;;
5042;SDS011;2540;50.928;6.856;2023-03-01T10:33:18;17.13;;;7.40;;
5042;SDS011;2540;50.928;6.856;2023-03-01T10:35:44;11.67;;;7.20;;
5042;SDS011;2540;50.928;6.856;2023-03-01T10:38:10;14.07;;;7.63;;
5042;SDS011;2540;50.928;6.856;2023-03-01T10:40:36;18.77;;;6.57;;
5042;SDS011;2540;50.928;6.856;2023-03-01T10:43:11;10.80;;;6.53;;
5042;SDS011;2540;50.928;6.856;2023-03-01T10:45:38;13.53;;;7.07;;
5042;SDS011;2540;50.928;6.856;2023-03-01T10:50:44;16.33;;;8.10;;
5042;SDS011;2540;50.928;6.856;2023-03-01T10:53:29;14.60;;;7.80;;
5042;SDS011;2540;50.928;6.856;2023-03-01T10:56:05;12.00;;;7.20;;
5042;SDS011;2540;50.928;6.856;2023-03-01T10:58:32;12.23;;;6.60;;
5042;SDS011;2540;50.928;6.856;2023-03-01T11:00:58;14.93;;;7.80;;
5042;SDS011;2540;50.928;6.856;2023-03-01T11:03:25;18.23;;;7.90;;
5042;SDS011;2540;50.928;6.856;2023-03-01T11:08:26;17.93;;;7.67;;
5042;SDS011;2540;50.928;6.856;2023-03-01T11:10:59;16.30;;;7.80;;
5042;SDS011;2540;50.928;6.856;2023-03-01T11:13:28;18.27;;;7.87;;
5042;SDS011;2540;50.928;6.856;2023-03-01T11:16:00;18.27;;;7.57;;
5042;SDS011;2540;50.928;6.856;2023-03-01T11:18:25;13.20;;;7.63;;
5042;SDS011;2540;50.928;6.856;2023-03-01T11:20:51;12.97;;;7.20;;
5042;SDS011;2540;50.928;6.856;2023-03-01T11:23:18;15.70;;;8.13;;
5042;SDS011;2540;50.928;6.856;2023-03-01T11:25:46;14.47;;;7.23;;
5042;SDS011;2540;50.928;6.856;2023-03-01T11:28:16;13.63;;;6.57;;
5042;SDS011;2540;50.928;6.856;2023-03-01T11:30:46;13.30;;;7.00;;
5042;SDS011;2540;50.928;6.856;2023-03-01T11:35:41;14.23;;;6.70;;
5042;SDS011;2540;50.928;6.856;2023-03-01T11:40:46;17.53;;;6.30;;
5042;SDS011;2540;50.928;6.856;2023-03-01T11:48:14;15.90;;;7.30;;
5042;SDS011;2540;50.928;6.856;2023-03-01T11:50:47;14.50;;;6.97;;
5042;SDS011;2540;50.928;6.856;2023-03-01T11:53:56;13.57;;;7.07;;
5042;SDS011;2540;50.928;6.856;2023-03-01T12:01:36;12.13;;;6.63;;
5042;SDS011;2540;50.928;6.856;2023-03-01T12:06:53;12.37;;;6.87;;
5042;SDS011;2540;50.928;6.856;2023-03-01T12:09:25;11.40;;;7.00;;
5042;SDS011;2540;50.928;6.856;2023-03-01T12:14:40;10.83;;;6.77;;
5042;SDS011;2540;50.928;6.856;2023-03-01T12:23:01;8.47;;;5.90;;
5042;SDS011;2540;50.928;6.856;2023-03-01T12:25:34;11.87;;;6.40;;
5042;SDS011;2540;50.928;6.856;2023-03-01T12:30:51;10.90;;;6.50;;
5042;SDS011;2540;50.928;6.856;2023-03-01T12:33:39;12.30;;;6.60;;
5042;SDS011;2540;50.928;6.856;2023-03-01T12:36:12;9.00;;;6.20;;
5042;SDS011;2540;50.928;6.856;2023-03-01T12:38:59;10.50;;;5.77;;
5042;SDS011;2540;50.928;6.856;2023-03-01T12:41:32;14.47;;;6.50;;
5042;SDS011;2540;50.928;6.856;2023-03-01T12:49:02;15.07;;;7.87;;
5042;SDS011;2540;50.928;6.856;2023-03-01T12:51:30;12.10;;;6.50;;
5042;SDS011;2540;50.928;6.856;2023-03-01T12:53:57;10.37;;;6.30;;
5042;SDS011;2540;50.928;6.856;2023-03-01T12:56:25;12.90;;;7.23;;
5042;SDS011;2540;50.928;6.856;2023-03-01T13:04:05;13.83;;;7.43;;
5042;SDS011;2540;50.928;6.856;2023-03-01T13:11:41;11.33;;;6.50;;
5042;SDS011;2540;50.928;6.856;2023-03-01T13:16:44;10.80;;;6.43;;
5042;SDS011;2540;50.928;6.856;2023-03-01T13:19:17;14.43;;;6.40;;
5042;SDS011;2540;50.928;6.856;2023-03-01T13:21:44;9.20;;;6.60;;
5042;SDS011;2540;50.928;6.856;2023-03-01T13:24:29;13.00;;;6.67;;
5042;SDS011;2540;50.928;6.856;2023-03-01T13:29:28;14.57;;;8.40;;
5042;SDS011;2540;50.928;6.856;2023-03-01T13:32:16;13.40;;;8.47;;
5042;SDS011;2540;50.928;6.856;2023-03-01T13:34:44;11.03;;;7.93;;
5042;SDS011;2540;50.928;6.856;2023-03-01T13:37:18;11.67;;;8.43;;
5042;SDS011;2540;50.928;6.856;2023-03-01T13:39:43;12.50;;;7.83;;
5042;SDS011;2540;50.928;6.856;2023-03-01T13:44:53;12.80;;;8.20;;
5042;SDS011;2540;50.928;6.856;2023-03-01T13:47:18;14.67;;;7.40;;
5042;SDS011;2540;50.928;6.856;2023-03-01T13:49:46;10.03;;;7.27;;
5042;SDS011;2540;50.928;6.856;2023-03-01T13:54:56;15.70;;;7.80;;
5042;SDS011;2540;50.928;6.856;2023-03-01T13:57:24;13.17;;;8.80;;
5042;SDS011;2540;50.928;6.856;2023-03-01T13:59:50;14.17;;;9.70;;
5042;SDS011;2540;50.928;6.856;2023-03-01T14:02:15;14.57;;;9.00;;
5042;SDS011;2540;50.928;6.856;2023-03-01T14:04:40;15.13;;;8.73;;
5042;SDS011;2540;50.928;6.856;2023-03-01T14:07:24;17.40;;;8.80;;
5042;SDS011;2540;50.928;6.856;2023-03-01T14:10:02;18.73;;;9.30;;
5042;SDS011;2540;50.928;6.856;2023-03-01T14:20:19;13.93;;;8.40;;
5042;SDS011;2540;50.928;6.856;2023-03-01T14:22:44;13.53;;;7.47;;
5042;SDS011;2540;50.928;6.856;2023-03-01T14:25:53;14.17;;;6.47;;
5042;SDS011;2540;50.928;6.856;2023-03-01T14:28:00;13.07;;;7.23;;
5042;SDS011;2540;50.928;6.856;2023-03-01T14:30:27;13.63;;;7.03;;
5042;SDS011;2540;50.928;6.856;2023-03-01T14:33:00;13.10;;;7.07;;
5042;SDS011;2540;50.928;6.856;2023-03-01T14:35:27;19.13;;;7.70;;
5042;SDS011;2540;50.928;6.856;2023-03-01T14:37:52;12.00;;;7.40;;
5042;SDS011;2540;50.928;6.856;2023-03-01T14:40:25;11.10;;;6.87;;
5042;SDS011;2540;50.928;6.856;2023-03-01T14:42:51;15.30;;;7.50;;
5042;SDS011;2540;50.928;6.856;2023-03-01T14:45:16;11.13;;;6.83;;
5042;SDS011;2540;50.928;6.856;2023-03-01T14:47:43;12.70;;;6.60;;
5042;SDS011;2540;50.928;6.856;2023-03-01T14:52:41;11.93;;;6.10;;
5042;SDS011;2540;50.928;6.856;2023-03-01T14:55:13;9.07;;;5.97;;
5042;SDS011;2540;50.928;6.856;2023-03-01T14:57:42;12.80;;;5.60;;
5042;SDS011;2540;50.928;6.856;2023-03-01T15:00:08;15.63;;;7.20;;
5042;SDS011;2540;50.928;6.856;2023-03-01T15:02:33;10.50;;;6.50;;
5042;SDS011;2540;50.928;6.856;2023-03-01T15:05:00;11.03;;;7.07;;
5042;SDS011;2540;50.928;6.856;2023-03-01T15:07:27;9.20;;;6.47;;
5042;SDS011;2540;50.928;6.856;2023-03-01T15:09:54;15.13;;;6.90;;
5042;SDS011;2540;50.928;6.856;2023-03-01T15:14:50;10.13;;;6.53;;
5042;SDS011;2540;50.928;6.856;2023-03-01T15:19:54;12.03;;;5.80;;
5042;SDS011;2540;50.928;6.856;2023-03-01T15:22:20;11.10;;;6.53;;
5042;SDS011;2540;50.928;6.856;2023-03-01T15:24:49;14.00;;;6.57;;
5042;SDS011;2540;50.928;6.856;2023-03-01T15:27:18;12.57;;;6.40;;
5042;SDS011;2540;50.928;6.856;2023-03-01T15:29:52;11.63;;;6.90;;
5042;SDS011;2540;50.928;6.856;2023-03-01T15:34:49;14.00;;;6.80;;
5042;SDS011;2540;50.928;6.856;2023-03-01T15:37:56;11.00;;;6.40;;
5042;SDS011;2540;50.928;6.856;2023-03-01T15:40:03;13.53;;;7.00;;
5042;SDS011;2540;50.928;6.856;2023-03-01T15:45:11;11.43;;;6.37;;
5042;SDS011;2540;50.928;6.856;2023-03-01T15:47:39;10.33;;;6.20;;
5042;SDS011;2540;50.928;6.856;2023-03-01T15:50:04;11.53;;;5.80;;
5042;SDS011;2540;50.928;6.856;2023-03-01T15:52:39;8.77;;;5.60;;
5042;SDS011;2540;50.928;6.856;2023-03-01T15:55:06;10.33;;;6.20;;
5042;SDS011;2540;50.928;6.856;2023-03-01T15:57:41;14.90;;;5.43;;
5042;SDS011;2540;50.928;6.856;2023-03-01T16:00:09;10.97;;;5.30;;
5042;SDS011;2540;50.928;6.856;2023-03-01T16:02:38;9.53;;;5.63;;
5042;SDS011;2540;50.928;6.856;2023-03-01T16:05:03;11.57;;;6.10;;
5042;SDS011;2540;50.928;6.856;2023-03-01T16:07:29;11.37;;;6.20;;
5042;SDS011;2540;50.928;6.856;2023-03-01T16:09:55;14.20;;;6.20;;
5042;SDS011;2540;50.928;6.856;2023-03-01T16:12:21;9.47;;;5.33;;
5042;SDS011;2540;50.928;6.856;2023-03-01T16:14:46;12.73;;;5.20;;
5042;SDS011;2540;50.928;6.856;2023-03-01T16:17:13;16.67;;;6.00;;
5042;SDS011;2540;50.928;6.856;2023-03-01T16:19:38;13.60;;;5.50;;
5042;SDS011;2540;50.928;6.856;2023-03-01T16:22:04;10.00;;;5.70;;
5042;SDS011;2540;50.928;6.856;2023-03-01T16:24:29;9.03;;;5.30;;
5042;SDS011;2540;50.928;6.856;2023-03-01T16:26:55;11.70;;;5.93;;
5042;SDS011;2540;50.928;6.856;2023-03-01T16:29:20;7.33;;;5.10;;
5042;SDS011;2540;50.928;6.856;2023-03-01T16:31:45;8.07;;;5.03;;
5042;SDS011;2540;50.928;6.856;2023-03-01T16:34:11;9.80;;;5.60;;
5042;SDS011;2540;50.928;6.856;2023-03-01T16:36:36;8.40;;;4.83;;
5042;SDS011;2540;50.928;6.856;2023-03-01T16:39:02;15.13;;;5.47;;
5042;SDS011;2540;50.928;6.856;2023-03-01T16:41:28;8.23;;;5.23;;
5042;SDS011;2540;50.928;6.856;2023-03-01T16:43:53;10.77;;;5.90;;